sensor_id;sensor_type;location;lat;lon;timestamp;temperature;humidity
45643;DHT22;31358;46.008;11.144;2024-01-25T00:02:16;4.30;97.40
45643;DHT22;31358;46.008;11.144;2024-01-25T00:04:41;4.30;97.60
45643;DHT22;31358;46.008;11.144;2024-01-25T00:07:10;4.40;97.50
45643;DHT22;31358;46.008;11.144;2024-01-25T00:09:36;4.50;97.10
45643;DHT22;31358;46.008;11.144;2024-01-25T00:12:02;4.50;97.00
45643;DHT22;31358;46.008;11.144;2024-01-25T00:14:27;4.50;97.00
45643;DHT22;31358;46.008;11.144;2024-01-25T00:16:53;4.50;97.10
45643;DHT22;31358;46.008;11.144;2024-01-25T00:19:19;4.40;97.70
45643;DHT22;31358;46.008;11.144;2024-01-25T00:21:44;4.30;97.70
45643;DHT22;31358;46.008;11.144;2024-01-25T00:24:14;4.10;97.80
45643;DHT22;31358;46.008;11.144;2024-01-25T00:26:39;4.20;97.70
45643;DHT22;31358;46.008;11.144;2024-01-25T00:29:05;4.30;97.50
45643;DHT22;31358;46.008;11.144;2024-01-25T00:31:31;4.10;97.90
45643;DHT22;31358;46.008;11.144;2024-01-25T00:33:59;3.90;98.30
45643;DHT22;31358;46.008;11.144;2024-01-25T00:36:25;3.70;98.90
45643;DHT22;31358;46.008;11.144;2024-01-25T00:38:52;3.80;99.10
45643;DHT22;31358;46.008;11.144;2024-01-25T00:41:19;3.70;98.70
45643;DHT22;31358;46.008;11.144;2024-01-25T00:43:45;3.70;98.70
45643;DHT22;31358;46.008;11.144;2024-01-25T00:46:11;4.00;98.60
45643;DHT22;31358;46.008;11.144;2024-01-25T00:48:37;4.00;98.40
45643;DHT22;31358;46.008;11.144;2024-01-25T00:51:07;4.20;97.80
45643;DHT22;31358;46.008;11.144;2024-01-25T00:53:33;4.20;97.90
45643;DHT22;31358;46.008;11.144;2024-01-25T00:55:59;4.10;98.10
45643;DHT22;31358;46.008;11.144;2024-01-25T00:58:26;4.10;97.80
45643;DHT22;31358;46.008;11.144;2024-01-25T01:00:51;4.00;98.00
45643;DHT22;31358;46.008;11.144;2024-01-25T01:03:18;4.00;98.30
45643;DHT22;31358;46.008;11.144;2024-01-25T01:05:45;4.10;98.40
45643;DHT22;31358;46.008;11.144;2024-01-25T01:08:12;4.00;98.40
45643;DHT22;31358;46.008;11.144;2024-01-25T01:10:37;4.10;98.40
45643;DHT22;31358;46.008;11.144;2024-01-25T01:13:03;4.10;98.60
45643;DHT22;31358;46.008;11.144;2024-01-25T01:15:29;3.90;98.90
45643;DHT22;31358;46.008;11.144;2024-01-25T01:17:54;4.00;98.60
45643;DHT22;31358;46.008;11.144;2024-01-25T01:20:20;4.10;98.50
45643;DHT22;31358;46.008;11.144;2024-01-25T01:22:46;3.90;99.00
45643;DHT22;31358;46.008;11.144;2024-01-25T01:25:11;3.70;99.30
45643;DHT22;31358;46.008;11.144;2024-01-25T01:27:37;3.90;99.00
45643;DHT22;31358;46.008;11.144;2024-01-25T01:30:03;3.90;99.30
45643;DHT22;31358;46.008;11.144;2024-01-25T01:32:29;3.60;99.80
45643;DHT22;31358;46.008;11.144;2024-01-25T01:34:55;3.60;99.70
45643;DHT22;31358;46.008;11.144;2024-01-25T01:37:20;3.50;99.90
45643;DHT22;31358;46.008;11.144;2024-01-25T01:39:46;3.60;99.90
45643;DHT22;31358;46.008;11.144;2024-01-25T01:42:12;3.90;99.40
45643;DHT22;31358;46.008;11.144;2024-01-25T01:47:34;4.00;98.60
45643;DHT22;31358;46.008;11.144;2024-01-25T01:49:59;4.00;98.60
45643;DHT22;31358;46.008;11.144;2024-01-25T01:52:25;4.00;99.10
45643;DHT22;31358;46.008;11.144;2024-01-25T01:54:51;3.90;99.20
45643;DHT22;31358;46.008;11.144;2024-01-25T01:57:17;3.80;99.50
45643;DHT22;31358;46.008;11.144;2024-01-25T01:59:42;3.70;99.30
45643;DHT22;31358;46.008;11.144;2024-01-25T02:02:08;3.60;99.90
45643;DHT22;31358;46.008;11.144;2024-01-25T02:04:34;3.60;99.90
45643;DHT22;31358;46.008;11.144;2024-01-25T02:06:59;3.80;99.70
45643;DHT22;31358;46.008;11.144;2024-01-25T02:09:25;3.90;99.50
45643;DHT22;31358;46.008;11.144;2024-01-25T02:12:03;3.70;99.70
45643;DHT22;31358;46.008;11.144;2024-01-25T02:14:30;3.60;99.80
45643;DHT22;31358;46.008;11.144;2024-01-25T02:16:56;3.70;99.50
45643;DHT22;31358;46.008;11.144;2024-01-25T02:19:21;3.60;99.40
45643;DHT22;31358;46.008;11.144;2024-01-25T02:21:47;3.60;99.70
45643;DHT22;31358;46.008;11.144;2024-01-25T02:24:14;3.60;99.80
45643;DHT22;31358;46.008;11.144;2024-01-25T02:26:40;3.50;99.90
45643;DHT22;31358;46.008;11.144;2024-01-25T02:29:06;3.50;99.90
45643;DHT22;31358;46.008;11.144;2024-01-25T02:31:33;3.50;99.90
45643;DHT22;31358;46.008;11.144;2024-01-25T02:33:59;3.30;99.90
45643;DHT22;31358;46.008;11.144;2024-01-25T02:36:25;3.20;99.90
45643;DHT22;31358;46.008;11.144;2024-01-25T02:38:50;3.20;99.90
45643;DHT22;31358;46.008;11.144;2024-01-25T02:41:16;3.60;99.90
45643;DHT22;31358;46.008;11.144;2024-01-25T02:43:42;3.70;99.90
45643;DHT22;31358;46.008;11.144;2024-01-25T02:46:08;3.60;99.90
45643;DHT22;31358;46.008;11.144;2024-01-25T02:48:34;3.70;99.90
45643;DHT22;31358;46.008;11.144;2024-01-25T02:51:00;3.50;99.90
45643;DHT22;31358;46.008;11.144;2024-01-25T02:53:26;3.40;99.90
45643;DHT22;31358;46.008;11.144;2024-01-25T02:55:51;3.40;99.90
45643;DHT22;31358;46.008;11.144;2024-01-25T02:58:17;3.30;99.90
45643;DHT22;31358;46.008;11.144;2024-01-25T03:00:43;3.10;99.90
45643;DHT22;31358;46.008;11.144;2024-01-25T03:03:08;3.30;99.90
45643;DHT22;31358;46.008;11.144;2024-01-25T03:05:34;3.60;99.90
45643;DHT22;31358;46.008;11.144;2024-01-25T03:08:00;3.70;99.90
45643;DHT22;31358;46.008;11.144;2024-01-25T03:10:26;3.70;99.90
45643;DHT22;31358;46.008;11.144;2024-01-25T03:12:51;3.50;99.90
45643;DHT22;31358;46.008;11.144;2024-01-25T03:15:17;3.40;99.90
45643;DHT22;31358;46.008;11.144;2024-01-25T03:17:43;3.40;99.90
45643;DHT22;31358;46.008;11.144;2024-01-25T03:20:09;3.50;99.90
45643;DHT22;31358;46.008;11.144;2024-01-25T03:22:35;3.20;99.90
45643;DHT22;31358;46.008;11.144;2024-01-25T03:25:01;3.20;99.90
45643;DHT22;31358;46.008;11.144;2024-01-25T03:27:26;3.10;99.90
45643;DHT22;31358;46.008;11.144;2024-01-25T03:29:52;3.10;99.90
45643;DHT22;31358;46.008;11.144;2024-01-25T03:32:18;3.00;99.90
45643;DHT22;31358;46.008;11.144;2024-01-25T03:34:43;3.10;99.90
45643;DHT22;31358;46.008;11.144;2024-01-25T03:37:09;2.90;99.90
45643;DHT22;31358;46.008;11.144;2024-01-25T03:39:35;2.90;99.90
45643;DHT22;31358;46.008;11.144;2024-01-25T03:42:01;3.10;99.90
45643;DHT22;31358;46.008;11.144;2024-01-25T03:44:26;3.30;99.90
45643;DHT22;31358;46.008;11.144;2024-01-25T03:46:52;3.30;99.90
45643;DHT22;31358;46.008;11.144;2024-01-25T03:49:18;3.30;99.90
45643;DHT22;31358;46.008;11.144;2024-01-25T03:51:44;3.30;99.90
45643;DHT22;31358;46.008;11.144;2024-01-25T03:54:10;3.30;99.90
45643;DHT22;31358;46.008;11.144;2024-01-25T03:56:35;3.20;99.90
45643;DHT22;31358;46.008;11.144;2024-01-25T03:59:01;3.10;99.90
45643;DHT22;31358;46.008;11.144;2024-01-25T04:01:26;3.10;99.90
45643;DHT22;31358;46.008;11.144;2024-01-25T04:03:52;2.90;99.90
45643;DHT22;31358;46.008;11.144;2024-01-25T04:06:18;2.90;99.90
45643;DHT22;31358;46.008;11.144;2024-01-25T04:08:45;2.80;99.90
45643;DHT22;31358;46.008;11.144;2024-01-25T04:11:10;3.00;99.90
45643;DHT22;31358;46.008;11.144;2024-01-25T04:13:36;3.20;99.90
45643;DHT22;31358;46.008;11.144;2024-01-25T04:16:02;3.10;99.90
45643;DHT22;31358;46.008;11.144;2024-01-25T04:18:27;3.00;99.90
45643;DHT22;31358;46.008;11.144;2024-01-25T04:20:53;3.10;99.90
45643;DHT22;31358;46.008;11.144;2024-01-25T04:23:19;2.90;99.90
45643;DHT22;31358;46.008;11.144;2024-01-25T04:25:44;2.70;99.90
45643;DHT22;31358;46.008;11.144;2024-01-25T04:28:10;2.70;99.90
45643;DHT22;31358;46.008;11.144;2024-01-25T04:30:36;2.70;99.90
45643;DHT22;31358;46.008;11.144;2024-01-25T04:33:02;2.60;99.90
45643;DHT22;31358;46.008;11.144;2024-01-25T04:35:28;2.80;99.90
45643;DHT22;31358;46.008;11.144;2024-01-25T04:37:53;2.80;99.90
45643;DHT22;31358;46.008;11.144;2024-01-25T04:40:19;3.00;99.90
45643;DHT22;31358;46.008;11.144;2024-01-25T04:42:45;3.10;99.90
45643;DHT22;31358;46.008;11.144;2024-01-25T04:45:10;3.10;99.90
45643;DHT22;31358;46.008;11.144;2024-01-25T04:47:38;3.00;99.90
45643;DHT22;31358;46.008;11.144;2024-01-25T04:50:04;2.80;99.90
45643;DHT22;31358;46.008;11.144;2024-01-25T04:52:30;2.80;99.90
45643;DHT22;31358;46.008;11.144;2024-01-25T04:54:56;2.60;99.90
45643;DHT22;31358;46.008;11.144;2024-01-25T04:57:21;2.60;99.90
45643;DHT22;31358;46.008;11.144;2024-01-25T04:59:47;2.80;99.90
45643;DHT22;31358;46.008;11.144;2024-01-25T05:02:13;3.00;99.90
45643;DHT22;31358;46.008;11.144;2024-01-25T05:04:38;3.00;99.90
45643;DHT22;31358;46.008;11.144;2024-01-25T05:07:04;2.90;99.90
45643;DHT22;31358;46.008;11.144;2024-01-25T05:09:30;2.70;99.90
45643;DHT22;31358;46.008;11.144;2024-01-25T05:11:55;2.80;99.90
45643;DHT22;31358;46.008;11.144;2024-01-25T05:14:24;2.80;99.90
45643;DHT22;31358;46.008;11.144;2024-01-25T05:16:50;2.80;99.90
45643;DHT22;31358;46.008;11.144;2024-01-25T05:19:16;2.90;99.90
45643;DHT22;31358;46.008;11.144;2024-01-25T05:21:42;2.90;99.90
45643;DHT22;31358;46.008;11.144;2024-01-25T05:24:08;2.80;99.90
45643;DHT22;31358;46.008;11.144;2024-01-25T05:26:35;3.00;99.90
45643;DHT22;31358;46.008;11.144;2024-01-25T05:29:01;2.80;99.90
45643;DHT22;31358;46.008;11.144;2024-01-25T05:31:26;2.80;99.90
45643;DHT22;31358;46.008;11.144;2024-01-25T05:33:52;2.70;99.90
45643;DHT22;31358;46.008;11.144;2024-01-25T05:36:18;2.70;99.90
45643;DHT22;31358;46.008;11.144;2024-01-25T05:38:43;2.70;99.90
45643;DHT22;31358;46.008;11.144;2024-01-25T05:41:09;2.70;99.90
45643;DHT22;31358;46.008;11.144;2024-01-25T05:43:34;2.70;99.90
45643;DHT22;31358;46.008;11.144;2024-01-25T05:46:00;2.90;99.90
45643;DHT22;31358;46.008;11.144;2024-01-25T05:48:26;2.80;99.90
45643;DHT22;31358;46.008;11.144;2024-01-25T05:50:51;2.90;99.90
45643;DHT22;31358;46.008;11.144;2024-01-25T05:53:17;2.80;99.90
45643;DHT22;31358;46.008;11.144;2024-01-25T05:55:45;2.70;99.90
45643;DHT22;31358;46.008;11.144;2024-01-25T05:58:11;2.70;99.90
45643;DHT22;31358;46.008;11.144;2024-01-25T06:00:36;2.70;99.90
45643;DHT22;31358;46.008;11.144;2024-01-25T06:03:02;2.80;99.90
45643;DHT22;31358;46.008;11.144;2024-01-25T06:05:28;2.80;99.90
45643;DHT22;31358;46.008;11.144;2024-01-25T06:07:53;2.90;99.90
45643;DHT22;31358;46.008;11.144;2024-01-25T06:10:19;2.90;99.90
45643;DHT22;31358;46.008;11.144;2024-01-25T06:12:44;2.90;99.90
45643;DHT22;31358;46.008;11.144;2024-01-25T06:15:10;2.80;99.90
45643;DHT22;31358;46.008;11.144;2024-01-25T06:17:36;2.70;99.90
45643;DHT22;31358;46.008;11.144;2024-01-25T06:20:02;2.80;99.90
45643;DHT22;31358;46.008;11.144;2024-01-25T06:22:28;2.80;99.90
45643;DHT22;31358;46.008;11.144;2024-01-25T06:24:53;2.90;99.90
45643;DHT22;31358;46.008;11.144;2024-01-25T06:27:19;2.70;99.90
45643;DHT22;31358;46.008;11.144;2024-01-25T06:29:45;2.70;99.90
45643;DHT22;31358;46.008;11.144;2024-01-25T06:32:10;2.70;99.90
45643;DHT22;31358;46.008;11.144;2024-01-25T06:34:36;2.60;99.90
45643;DHT22;31358;46.008;11.144;2024-01-25T06:37:02;2.70;99.90
45643;DHT22;31358;46.008;11.144;2024-01-25T06:39:27;2.70;99.90
45643;DHT22;31358;46.008;11.144;2024-01-25T06:41:53;2.80;99.90
45643;DHT22;31358;46.008;11.144;2024-01-25T06:44:19;2.50;99.90
45643;DHT22;31358;46.008;11.144;2024-01-25T06:46:45;2.30;99.90
45643;DHT22;31358;46.008;11.144;2024-01-25T06:49:11;2.40;99.90
45643;DHT22;31358;46.008;11.144;2024-01-25T06:51:37;2.40;99.90
45643;DHT22;31358;46.008;11.144;2024-01-25T06:54:02;2.40;99.90
45643;DHT22;31358;46.008;11.144;2024-01-25T06:56:28;2.40;99.90
45643;DHT22;31358;46.008;11.144;2024-01-25T06:58:54;2.60;99.90
45643;DHT22;31358;46.008;11.144;2024-01-25T07:01:23;2.70;99.90
45643;DHT22;31358;46.008;11.144;2024-01-25T07:03:49;2.70;99.90
45643;DHT22;31358;46.008;11.144;2024-01-25T07:06:18;2.80;99.90
45643;DHT22;31358;46.008;11.144;2024-01-25T07:08:45;2.80;99.90
45643;DHT22;31358;46.008;11.144;2024-01-25T07:11:11;2.80;99.90
45643;DHT22;31358;46.008;11.144;2024-01-25T07:13:37;2.60;99.90
45643;DHT22;31358;46.008;11.144;2024-01-25T07:16:02;2.90;99.90
45643;DHT22;31358;46.008;11.144;2024-01-25T07:18:28;3.00;99.90
45643;DHT22;31358;46.008;11.144;2024-01-25T07:20:54;3.20;99.90
45643;DHT22;31358;46.008;11.144;2024-01-25T07:23:21;3.30;99.90
45643;DHT22;31358;46.008;11.144;2024-01-25T07:25:47;3.20;99.90
45643;DHT22;31358;46.008;11.144;2024-01-25T07:28:12;3.00;99.90
45643;DHT22;31358;46.008;11.144;2024-01-25T07:30:38;2.80;99.90
45643;DHT22;31358;46.008;11.144;2024-01-25T07:33:04;2.90;99.90
45643;DHT22;31358;46.008;11.144;2024-01-25T07:35:29;3.00;99.90
45643;DHT22;31358;46.008;11.144;2024-01-25T07:37:55;3.00;99.90
45643;DHT22;31358;46.008;11.144;2024-01-25T07:40:21;2.90;99.90
45643;DHT22;31358;46.008;11.144;2024-01-25T07:42:47;2.90;99.90
45643;DHT22;31358;46.008;11.144;2024-01-25T07:45:12;3.00;99.90
45643;DHT22;31358;46.008;11.144;2024-01-25T07:47:41;3.00;99.90
45643;DHT22;31358;46.008;11.144;2024-01-25T07:50:07;3.20;99.90
45643;DHT22;31358;46.008;11.144;2024-01-25T07:52:33;3.10;99.90
45643;DHT22;31358;46.008;11.144;2024-01-25T07:54:59;3.10;99.90
45643;DHT22;31358;46.008;11.144;2024-01-25T07:57:25;3.30;99.90
45643;DHT22;31358;46.008;11.144;2024-01-25T07:59:50;3.20;99.90
45643;DHT22;31358;46.008;11.144;2024-01-25T08:02:16;3.20;99.90
45643;DHT22;31358;46.008;11.144;2024-01-25T08:04:42;3.20;99.90
45643;DHT22;31358;46.008;11.144;2024-01-25T08:07:08;3.40;99.90
45643;DHT22;31358;46.008;11.144;2024-01-25T08:09:34;3.50;99.90
45643;DHT22;31358;46.008;11.144;2024-01-25T08:12:00;3.40;99.90
45643;DHT22;31358;46.008;11.144;2024-01-25T08:14:25;3.30;99.90
45643;DHT22;31358;46.008;11.144;2024-01-25T08:16:51;3.40;99.90
45643;DHT22;31358;46.008;11.144;2024-01-25T08:19:17;3.40;99.90
45643;DHT22;31358;46.008;11.144;2024-01-25T08:21:42;3.50;99.90
45643;DHT22;31358;46.008;11.144;2024-01-25T08:24:08;3.50;99.90
45643;DHT22;31358;46.008;11.144;2024-01-25T08:26:34;3.40;99.90
45643;DHT22;31358;46.008;11.144;2024-01-25T08:29:00;3.50;99.90
45643;DHT22;31358;46.008;11.144;2024-01-25T08:31:26;3.50;99.90
45643;DHT22;31358;46.008;11.144;2024-01-25T08:33:52;3.50;99.90
45643;DHT22;31358;46.008;11.144;2024-01-25T08:36:18;3.60;99.90
45643;DHT22;31358;46.008;11.144;2024-01-25T08:38:48;3.70;99.90
45643;DHT22;31358;46.008;11.144;2024-01-25T08:41:13;3.70;99.90
45643;DHT22;31358;46.008;11.144;2024-01-25T08:43:40;3.90;99.90
45643;DHT22;31358;46.008;11.144;2024-01-25T08:46:06;3.90;99.90
45643;DHT22;31358;46.008;11.144;2024-01-25T08:48:32;3.90;99.90
45643;DHT22;31358;46.008;11.144;2024-01-25T08:50:58;3.90;99.90
45643;DHT22;31358;46.008;11.144;2024-01-25T08:53:23;3.80;99.90
45643;DHT22;31358;46.008;11.144;2024-01-25T08:55:53;3.70;99.90
45643;DHT22;31358;46.008;11.144;2024-01-25T08:58:19;3.70;99.90
45643;DHT22;31358;46.008;11.144;2024-01-25T09:00:45;3.70;99.90
45643;DHT22;31358;46.008;11.144;2024-01-25T09:03:11;3.90;99.90
45643;DHT22;31358;46.008;11.144;2024-01-25T09:05:36;3.80;99.90
45643;DHT22;31358;46.008;11.144;2024-01-25T09:08:06;3.90;99.90
45643;DHT22;31358;46.008;11.144;2024-01-25T09:10:32;3.90;99.90
45643;DHT22;31358;46.008;11.144;2024-01-25T09:12:58;4.00;99.90
45643;DHT22;31358;46.008;11.144;2024-01-25T09:15:24;4.00;99.90
45643;DHT22;31358;46.008;11.144;2024-01-25T09:17:49;4.00;99.90
45643;DHT22;31358;46.008;11.144;2024-01-25T09:20:15;4.00;99.90
45643;DHT22;31358;46.008;11.144;2024-01-25T09:22:41;3.80;99.90
45643;DHT22;31358;46.008;11.144;2024-01-25T09:25:07;3.90;99.90
45643;DHT22;31358;46.008;11.144;2024-01-25T09:27:33;3.90;99.90
45643;DHT22;31358;46.008;11.144;2024-01-25T09:29:59;3.90;99.90
45643;DHT22;31358;46.008;11.144;2024-01-25T09:32:24;4.00;99.90
45643;DHT22;31358;46.008;11.144;2024-01-25T09:34:50;4.00;99.90
45643;DHT22;31358;46.008;11.144;2024-01-25T09:37:17;4.00;99.90
45643;DHT22;31358;46.008;11.144;2024-01-25T09:39:44;4.10;99.90
45643;DHT22;31358;46.008;11.144;2024-01-25T09:42:10;4.20;99.90
45643;DHT22;31358;46.008;11.144;2024-01-25T09:44:37;4.10;99.90
45643;DHT22;31358;46.008;11.144;2024-01-25T09:47:05;4.20;99.90
45643;DHT22;31358;46.008;11.144;2024-01-25T09:49:32;4.20;99.90
45643;DHT22;31358;46.008;11.144;2024-01-25T09:52:01;4.20;99.90
45643;DHT22;31358;46.008;11.144;2024-01-25T09:54:32;4.30;99.90
45643;DHT22;31358;46.008;11.144;2024-01-25T09:56:59;4.40;99.90
45643;DHT22;31358;46.008;11.144;2024-01-25T09:59:26;4.40;99.90
45643;DHT22;31358;46.008;11.144;2024-01-25T10:01:53;4.40;99.90
45643;DHT22;31358;46.008;11.144;2024-01-25T10:04:19;4.50;99.90
45643;DHT22;31358;46.008;11.144;2024-01-25T10:06:47;4.50;99.90
45643;DHT22;31358;46.008;11.144;2024-01-25T10:09:13;4.40;99.90
45643;DHT22;31358;46.008;11.144;2024-01-25T10:11:39;4.40;99.90
45643;DHT22;31358;46.008;11.144;2024-01-25T10:14:06;4.50;99.90
45643;DHT22;31358;46.008;11.144;2024-01-25T10:16:34;4.60;99.90
45643;DHT22;31358;46.008;11.144;2024-01-25T10:19:01;4.70;99.90
45643;DHT22;31358;46.008;11.144;2024-01-25T10:21:28;4.70;99.90
45643;DHT22;31358;46.008;11.144;2024-01-25T10:23:55;4.70;99.90
45643;DHT22;31358;46.008;11.144;2024-01-25T10:26:26;4.70;99.90
45643;DHT22;31358;46.008;11.144;2024-01-25T10:28:54;4.70;99.90
45643;DHT22;31358;46.008;11.144;2024-01-25T10:31:23;4.70;99.90
45643;DHT22;31358;46.008;11.144;2024-01-25T10:33:52;4.80;99.90
45643;DHT22;31358;46.008;11.144;2024-01-25T10:36:22;4.90;99.90
45643;DHT22;31358;46.008;11.144;2024-01-25T10:38:49;4.90;99.90
45643;DHT22;31358;46.008;11.144;2024-01-25T10:41:16;5.10;99.90
45643;DHT22;31358;46.008;11.144;2024-01-25T10:43:42;5.20;99.90
45643;DHT22;31358;46.008;11.144;2024-01-25T10:46:08;5.40;99.90
45643;DHT22;31358;46.008;11.144;2024-01-25T10:48:34;5.50;99.90
45643;DHT22;31358;46.008;11.144;2024-01-25T10:51:00;5.60;99.90
45643;DHT22;31358;46.008;11.144;2024-01-25T10:53:33;5.70;99.90
45643;DHT22;31358;46.008;11.144;2024-01-25T10:56:00;5.80;99.90
45643;DHT22;31358;46.008;11.144;2024-01-25T10:58:35;5.80;99.90
45643;DHT22;31358;46.008;11.144;2024-01-25T11:01:01;5.80;99.90
45643;DHT22;31358;46.008;11.144;2024-01-25T11:03:34;5.80;99.90
45643;DHT22;31358;46.008;11.144;2024-01-25T11:06:10;6.00;99.90
45643;DHT22;31358;46.008;11.144;2024-01-25T11:08:36;6.00;99.90
45643;DHT22;31358;46.008;11.144;2024-01-25T11:11:12;6.00;99.90
45643;DHT22;31358;46.008;11.144;2024-01-25T11:13:42;6.20;99.90
45643;DHT22;31358;46.008;11.144;2024-01-25T11:16:16;6.40;99.90
45643;DHT22;31358;46.008;11.144;2024-01-25T11:18:54;6.50;99.90
45643;DHT22;31358;46.008;11.144;2024-01-25T11:21:43;6.70;99.90
45643;DHT22;31358;46.008;11.144;2024-01-25T11:24:13;6.60;99.90
45643;DHT22;31358;46.008;11.144;2024-01-25T11:26:39;6.60;99.90
45643;DHT22;31358;46.008;11.144;2024-01-25T11:29:05;6.70;99.90
45643;DHT22;31358;46.008;11.144;2024-01-25T11:31:31;6.90;99.90
45643;DHT22;31358;46.008;11.144;2024-01-25T11:33:58;7.10;99.90
45643;DHT22;31358;46.008;11.144;2024-01-25T11:36:27;7.20;99.90
45643;DHT22;31358;46.008;11.144;2024-01-25T11:38:53;7.30;99.90
45643;DHT22;31358;46.008;11.144;2024-01-25T11:41:20;7.20;99.90
45643;DHT22;31358;46.008;11.144;2024-01-25T11:43:48;7.20;99.90
45643;DHT22;31358;46.008;11.144;2024-01-25T11:46:14;7.20;99.90
45643;DHT22;31358;46.008;11.144;2024-01-25T11:48:40;7.40;99.90
45643;DHT22;31358;46.008;11.144;2024-01-25T11:51:07;7.70;99.90
45643;DHT22;31358;46.008;11.144;2024-01-25T11:53:34;7.80;99.90
45643;DHT22;31358;46.008;11.144;2024-01-25T11:56:00;7.80;99.90
45643;DHT22;31358;46.008;11.144;2024-01-25T11:58:26;7.90;99.90
45643;DHT22;31358;46.008;11.144;2024-01-25T12:00:51;8.00;99.90
45643;DHT22;31358;46.008;11.144;2024-01-25T12:03:17;8.20;99.90
45643;DHT22;31358;46.008;11.144;2024-01-25T12:05:43;8.00;99.90
45643;DHT22;31358;46.008;11.144;2024-01-25T12:08:13;7.90;99.80
45643;DHT22;31358;46.008;11.144;2024-01-25T12:10:39;7.90;99.80
45643;DHT22;31358;46.008;11.144;2024-01-25T12:13:07;8.00;99.90
45643;DHT22;31358;46.008;11.144;2024-01-25T12:15:35;8.20;99.90
45643;DHT22;31358;46.008;11.144;2024-01-25T12:18:00;8.40;99.90
45643;DHT22;31358;46.008;11.144;2024-01-25T12:20:28;8.50;99.70
45643;DHT22;31358;46.008;11.144;2024-01-25T12:22:54;8.60;99.40
45643;DHT22;31358;46.008;11.144;2024-01-25T12:25:19;8.70;99.40
45643;DHT22;31358;46.008;11.144;2024-01-25T12:27:47;8.70;99.10
45643;DHT22;31358;46.008;11.144;2024-01-25T12:30:15;8.50;98.70
45643;DHT22;31358;46.008;11.144;2024-01-25T12:32:40;8.50;98.80
45643;DHT22;31358;46.008;11.144;2024-01-25T12:35:06;8.70;99.10
45643;DHT22;31358;46.008;11.144;2024-01-25T12:37:34;8.80;98.80
45643;DHT22;31358;46.008;11.144;2024-01-25T12:39:59;8.90;98.90
45643;DHT22;31358;46.008;11.144;2024-01-25T12:42:25;8.90;98.40
45643;DHT22;31358;46.008;11.144;2024-01-25T12:44:53;9.00;98.50
45643;DHT22;31358;46.008;11.144;2024-01-25T12:47:20;9.10;98.90
45643;DHT22;31358;46.008;11.144;2024-01-25T12:49:45;9.10;98.70
45643;DHT22;31358;46.008;11.144;2024-01-25T12:52:13;9.20;98.60
45643;DHT22;31358;46.008;11.144;2024-01-25T12:54:39;9.20;98.50
45643;DHT22;31358;46.008;11.144;2024-01-25T12:57:05;9.30;98.30
45643;DHT22;31358;46.008;11.144;2024-01-25T12:59:32;9.30;98.40
45643;DHT22;31358;46.008;11.144;2024-01-25T13:01:58;9.40;98.10
45643;DHT22;31358;46.008;11.144;2024-01-25T13:04:24;9.40;98.10
45643;DHT22;31358;46.008;11.144;2024-01-25T13:06:53;9.50;98.20
45643;DHT22;31358;46.008;11.144;2024-01-25T13:09:20;9.40;97.90
45643;DHT22;31358;46.008;11.144;2024-01-25T13:11:46;9.40;97.70
45643;DHT22;31358;46.008;11.144;2024-01-25T13:14:12;9.50;98.10
45643;DHT22;31358;46.008;11.144;2024-01-25T13:16:38;9.50;97.70
45643;DHT22;31358;46.008;11.144;2024-01-25T13:19:04;9.50;97.70
45643;DHT22;31358;46.008;11.144;2024-01-25T13:21:31;9.60;97.40
45643;DHT22;31358;46.008;11.144;2024-01-25T13:23:56;9.60;97.50
45643;DHT22;31358;46.008;11.144;2024-01-25T13:26:22;9.70;97.10
45643;DHT22;31358;46.008;11.144;2024-01-25T13:28:48;9.90;97.30
45643;DHT22;31358;46.008;11.144;2024-01-25T13:31:13;10.00;96.90
45643;DHT22;31358;46.008;11.144;2024-01-25T13:33:39;10.00;97.10
45643;DHT22;31358;46.008;11.144;2024-01-25T13:36:05;10.00;97.00
45643;DHT22;31358;46.008;11.144;2024-01-25T13:38:34;10.00;97.20
45643;DHT22;31358;46.008;11.144;2024-01-25T13:41:00;10.10;97.10
45643;DHT22;31358;46.008;11.144;2024-01-25T13:43:26;10.10;96.80
45643;DHT22;31358;46.008;11.144;2024-01-25T13:45:53;10.00;96.80
45643;DHT22;31358;46.008;11.144;2024-01-25T13:48:19;10.10;96.90
45643;DHT22;31358;46.008;11.144;2024-01-25T13:50:45;10.10;97.00
45643;DHT22;31358;46.008;11.144;2024-01-25T13:53:10;10.10;97.40
45643;DHT22;31358;46.008;11.144;2024-01-25T13:55:36;10.20;97.10
45643;DHT22;31358;46.008;11.144;2024-01-25T13:58:02;10.10;96.60
45643;DHT22;31358;46.008;11.144;2024-01-25T14:00:27;10.00;96.80
45643;DHT22;31358;46.008;11.144;2024-01-25T14:02:53;10.00;97.00
45643;DHT22;31358;46.008;11.144;2024-01-25T14:05:19;10.00;97.00
45643;DHT22;31358;46.008;11.144;2024-01-25T14:07:45;10.00;96.90
45643;DHT22;31358;46.008;11.144;2024-01-25T14:10:10;10.10;97.20
45643;DHT22;31358;46.008;11.144;2024-01-25T14:12:36;10.20;96.80
45643;DHT22;31358;46.008;11.144;2024-01-25T14:15:02;10.30;96.90
45643;DHT22;31358;46.008;11.144;2024-01-25T14:17:28;10.20;96.80
45643;DHT22;31358;46.008;11.144;2024-01-25T14:19:54;10.20;96.80
45643;DHT22;31358;46.008;11.144;2024-01-25T14:22:19;10.10;97.00
45643;DHT22;31358;46.008;11.144;2024-01-25T14:24:46;10.10;96.90
45643;DHT22;31358;46.008;11.144;2024-01-25T14:27:12;10.10;97.00
45643;DHT22;31358;46.008;11.144;2024-01-25T14:29:38;10.10;97.00
45643;DHT22;31358;46.008;11.144;2024-01-25T14:32:03;10.10;97.00
45643;DHT22;31358;46.008;11.144;2024-01-25T14:34:29;10.10;96.80
45643;DHT22;31358;46.008;11.144;2024-01-25T14:36:55;10.10;96.90
45643;DHT22;31358;46.008;11.144;2024-01-25T14:39:20;10.00;97.00
45643;DHT22;31358;46.008;11.144;2024-01-25T14:41:46;10.00;97.20
45643;DHT22;31358;46.008;11.144;2024-01-25T14:44:12;10.00;97.00
45643;DHT22;31358;46.008;11.144;2024-01-25T14:46:38;10.00;97.00
45643;DHT22;31358;46.008;11.144;2024-01-25T14:49:04;10.10;96.90
45643;DHT22;31358;46.008;11.144;2024-01-25T14:51:30;10.10;96.70
45643;DHT22;31358;46.008;11.144;2024-01-25T14:53:56;10.10;96.80
45643;DHT22;31358;46.008;11.144;2024-01-25T14:56:21;10.10;97.00
45643;DHT22;31358;46.008;11.144;2024-01-25T14:58:47;10.10;97.10
45643;DHT22;31358;46.008;11.144;2024-01-25T15:01:16;10.10;97.00
45643;DHT22;31358;46.008;11.144;2024-01-25T15:03:48;10.00;97.10
45643;DHT22;31358;46.008;11.144;2024-01-25T15:06:14;10.00;97.30
45643;DHT22;31358;46.008;11.144;2024-01-25T15:08:39;9.90;97.40
45643;DHT22;31358;46.008;11.144;2024-01-25T15:11:08;9.80;97.40
45643;DHT22;31358;46.008;11.144;2024-01-25T15:13:34;9.80;97.30
45643;DHT22;31358;46.008;11.144;2024-01-25T15:15:59;9.70;97.30
45643;DHT22;31358;46.008;11.144;2024-01-25T15:18:25;9.70;97.50
45643;DHT22;31358;46.008;11.144;2024-01-25T15:20:51;9.70;97.80
45643;DHT22;31358;46.008;11.144;2024-01-25T15:23:18;9.70;97.60
45643;DHT22;31358;46.008;11.144;2024-01-25T15:25:44;9.60;97.80
45643;DHT22;31358;46.008;11.144;2024-01-25T15:28:10;9.50;98.40